sensor_id;sensor_type;location;lat;lon;timestamp;P1;durP1;ratioP1;P2;durP2;ratioP2
55186;SDS011;55457;52.002;5.464;2022-07-15T00:02:08;2.63;;;1.75;;
55186;SDS011;55457;52.002;5.464;2022-07-15T00:04:34;3.45;;;1.88;;
55186;SDS011;55457;52.002;5.464;2022-07-15T00:07:01;3.15;;;1.98;;
55186;SDS011;55457;52.002;5.464;2022-07-15T00:09:27;3.40;;;2.22;;
55186;SDS011;55457;52.002;5.464;2022-07-15T00:12:10;4.53;;;2.60;;
55186;SDS011;55457;52.002;5.464;2022-07-15T00:14:37;2.67;;;1.67;;
55186;SDS011;55457;52.002;5.464;2022-07-15T00:17:03;3.35;;;2.50;;
55186;SDS011;55457;52.002;5.464;2022-07-15T00:19:28;3.13;;;1.83;;
55186;SDS011;55457;52.002;5.464;2022-07-15T00:21:53;4.28;;;2.35;;
55186;SDS011;55457;52.002;5.464;2022-07-15T00:24:19;3.85;;;2.03;;
55186;SDS011;55457;52.002;5.464;2022-07-15T00:26:44;5.25;;;2.13;;
55186;SDS011;55457;52.002;5.464;2022-07-15T00:29:09;3.15;;;2.00;;
55186;SDS011;55457;52.002;5.464;2022-07-15T00:31:36;3.70;;;2.15;;
55186;SDS011;55457;52.002;5.464;2022-07-15T00:34:01;2.30;;;1.80;;
55186;SDS011;55457;52.002;5.464;2022-07-15T00:36:28;3.78;;;1.67;;
55186;SDS011;55457;52.002;5.464;2022-07-15T00:38:53;4.47;;;1.85;;
55186;SDS011;55457;52.002;5.464;2022-07-15T00:41:19;4.00;;;2.05;;
55186;SDS011;55457;52.002;5.464;2022-07-15T00:43:44;3.28;;;2.08;;
55186;SDS011;55457;52.002;5.464;2022-07-15T00:46:09;4.07;;;1.92;;
55186;SDS011;55457;52.002;5.464;2022-07-15T00:48:40;6.53;;;1.88;;
55186;SDS011;55457;52.002;5.464;2022-07-15T00:51:06;2.72;;;2.00;;
55186;SDS011;55457;52.002;5.464;2022-07-15T00:53:31;3.67;;;2.13;;
55186;SDS011;55457;52.002;5.464;2022-07-15T00:55:59;2.60;;;1.70;;
55186;SDS011;55457;52.002;5.464;2022-07-15T00:58:26;5.22;;;2.22;;
55186;SDS011;55457;52.002;5.464;2022-07-15T01:00:53;3.03;;;2.15;;
55186;SDS011;55457;52.002;5.464;2022-07-15T01:03:19;6.30;;;2.22;;
55186;SDS011;55457;52.002;5.464;2022-07-15T01:05:46;4.25;;;2.25;;
55186;SDS011;55457;52.002;5.464;2022-07-15T01:08:12;2.72;;;1.52;;
55186;SDS011;55457;52.002;5.464;2022-07-15T01:10:39;3.75;;;1.75;;
55186;SDS011;55457;52.002;5.464;2022-07-15T01:13:05;4.47;;;1.98;;
55186;SDS011;55457;52.002;5.464;2022-07-15T01:15:32;7.05;;;1.73;;
55186;SDS011;55457;52.002;5.464;2022-07-15T01:17:58;3.15;;;2.08;;
55186;SDS011;55457;52.002;5.464;2022-07-15T01:20:24;4.53;;;1.85;;
55186;SDS011;55457;52.002;5.464;2022-07-15T01:22:49;4.35;;;2.20;;
55186;SDS011;55457;52.002;5.464;2022-07-15T01:25:14;3.17;;;2.17;;
55186;SDS011;55457;52.002;5.464;2022-07-15T01:27:40;3.45;;;1.60;;
55186;SDS011;55457;52.002;5.464;2022-07-15T01:30:06;4.35;;;1.70;;
55186;SDS011;55457;52.002;5.464;2022-07-15T01:32:32;4.78;;;2.53;;
55186;SDS011;55457;52.002;5.464;2022-07-15T01:34:57;4.60;;;1.83;;
55186;SDS011;55457;52.002;5.464;2022-07-15T01:37:23;4.43;;;2.00;;
55186;SDS011;55457;52.002;5.464;2022-07-15T01:39:48;2.97;;;2.00;;
55186;SDS011;55457;52.002;5.464;2022-07-15T01:42:14;3.63;;;2.00;;
55186;SDS011;55457;52.002;5.464;2022-07-15T01:44:39;3.55;;;2.40;;
55186;SDS011;55457;52.002;5.464;2022-07-15T01:47:04;1.92;;;1.23;;
55186;SDS011;55457;52.002;5.464;2022-07-15T01:49:30;3.38;;;1.92;;
55186;SDS011;55457;52.002;5.464;2022-07-15T01:51:57;4.13;;;1.70;;
55186;SDS011;55457;52.002;5.464;2022-07-15T01:54:25;3.17;;;1.60;;
55186;SDS011;55457;52.002;5.464;2022-07-15T01:56:52;2.65;;;2.05;;
55186;SDS011;55457;52.002;5.464;2022-07-15T01:59:18;4.43;;;2.05;;
55186;SDS011;55457;52.002;5.464;2022-07-15T02:01:47;4.28;;;2.10;;
55186;SDS011;55457;52.002;5.464;2022-07-15T02:04:13;4.13;;;2.00;;
55186;SDS011;55457;52.002;5.464;2022-07-15T02:06:39;2.80;;;1.65;;
55186;SDS011;55457;52.002;5.464;2022-07-15T02:09:04;2.67;;;2.05;;
55186;SDS011;55457;52.002;5.464;2022-07-15T02:11:30;4.68;;;1.98;;
55186;SDS011;55457;52.002;5.464;2022-07-15T02:13:55;3.95;;;1.88;;
55186;SDS011;55457;52.002;5.464;2022-07-15T02:16:24;3.40;;;1.58;;
55186;SDS011;55457;52.002;5.464;2022-07-15T02:18:50;3.22;;;2.05;;
55186;SDS011;55457;52.002;5.464;2022-07-15T02:21:16;2.50;;;1.90;;
55186;SDS011;55457;52.002;5.464;2022-07-15T02:23:41;2.35;;;1.60;;
55186;SDS011;55457;52.002;5.464;2022-07-15T02:26:07;4.00;;;2.22;;
55186;SDS011;55457;52.002;5.464;2022-07-15T02:28:32;3.83;;;1.83;;
55186;SDS011;55457;52.002;5.464;2022-07-15T02:30:58;4.03;;;1.98;;
55186;SDS011;55457;52.002;5.464;2022-07-15T02:33:23;3.10;;;2.17;;
55186;SDS011;55457;52.002;5.464;2022-07-15T02:35:48;2.80;;;1.63;;
55186;SDS011;55457;52.002;5.464;2022-07-15T02:38:14;3.78;;;1.70;;
55186;SDS011;55457;52.002;5.464;2022-07-15T02:40:40;4.03;;;1.90;;
55186;SDS011;55457;52.002;5.464;2022-07-15T02:43:08;2.00;;;1.50;;
55186;SDS011;55457;52.002;5.464;2022-07-15T02:45:34;3.15;;;1.55;;
55186;SDS011;55457;52.002;5.464;2022-07-15T02:48:00;3.95;;;1.90;;
55186;SDS011;55457;52.002;5.464;2022-07-15T02:50:26;6.03;;;2.25;;
55186;SDS011;55457;52.002;5.464;2022-07-15T02:52:51;3.65;;;1.73;;
55186;SDS011;55457;52.002;5.464;2022-07-15T02:55:17;1.95;;;1.35;;
55186;SDS011;55457;52.002;5.464;2022-07-15T02:57:42;4.32;;;2.03;;
55186;SDS011;55457;52.002;5.464;2022-07-15T03:00:09;3.95;;;2.03;;
55186;SDS011;55457;52.002;5.464;2022-07-15T03:02:37;2.25;;;1.58;;
55186;SDS011;55457;52.002;5.464;2022-07-15T03:05:03;2.85;;;1.60;;
55186;SDS011;55457;52.002;5.464;2022-07-15T03:07:30;3.17;;;1.83;;
55186;SDS011;55457;52.002;5.464;2022-07-15T03:09:55;4.05;;;1.75;;
55186;SDS011;55457;52.002;5.464;2022-07-15T03:12:21;2.13;;;1.30;;
55186;SDS011;55457;52.002;5.464;2022-07-15T03:14:46;3.65;;;1.65;;
55186;SDS011;55457;52.002;5.464;2022-07-15T03:17:12;2.75;;;1.73;;
55186;SDS011;55457;52.002;5.464;2022-07-15T03:19:37;3.67;;;1.63;;
55186;SDS011;55457;52.002;5.464;2022-07-15T03:22:02;2.92;;;1.92;;
55186;SDS011;55457;52.002;5.464;2022-07-15T03:24:28;3.30;;;1.95;;
55186;SDS011;55457;52.002;5.464;2022-07-15T03:26:54;2.92;;;1.83;;
55186;SDS011;55457;52.002;5.464;2022-07-15T03:29:19;2.20;;;1.40;;
55186;SDS011;55457;52.002;5.464;2022-07-15T03:31:45;2.97;;;1.92;;
55186;SDS011;55457;52.002;5.464;2022-07-15T03:34:10;1.83;;;1.30;;
55186;SDS011;55457;52.002;5.464;2022-07-15T03:36:39;2.95;;;2.08;;
55186;SDS011;55457;52.002;5.464;2022-07-15T03:39:05;3.95;;;1.60;;
55186;SDS011;55457;52.002;5.464;2022-07-15T03:41:31;2.28;;;1.50;;
55186;SDS011;55457;52.002;5.464;2022-07-15T03:43:57;4.75;;;1.38;;
55186;SDS011;55457;52.002;5.464;2022-07-15T03:46:22;2.20;;;1.52;;
55186;SDS011;55457;52.002;5.464;2022-07-15T03:48:47;3.72;;;1.63;;
55186;SDS011;55457;52.002;5.464;2022-07-15T03:51:13;4.82;;;2.40;;
55186;SDS011;55457;52.002;5.464;2022-07-15T03:53:38;3.15;;;1.80;;
55186;SDS011;55457;52.002;5.464;2022-07-15T03:56:03;2.50;;;1.30;;
55186;SDS011;55457;52.002;5.464;2022-07-15T03:58:29;3.05;;;1.33;;
55186;SDS011;55457;52.002;5.464;2022-07-15T04:00:54;3.10;;;1.70;;
55186;SDS011;55457;52.002;5.464;2022-07-15T04:03:19;4.72;;;1.65;;
55186;SDS011;55457;52.002;5.464;2022-07-15T04:05:45;3.15;;;1.92;;
55186;SDS011;55457;52.002;5.464;2022-07-15T04:08:10;2.20;;;1.38;;
55186;SDS011;55457;52.002;5.464;2022-07-15T04:10:36;3.22;;;1.77;;
55186;SDS011;55457;52.002;5.464;2022-07-15T04:13:02;5.15;;;1.52;;
55186;SDS011;55457;52.002;5.464;2022-07-15T04:15:28;1.98;;;1.50;;
55186;SDS011;55457;52.002;5.464;2022-07-15T04:17:53;2.28;;;1.33;;
55186;SDS011;55457;52.002;5.464;2022-07-15T04:20:19;2.97;;;1.38;;
55186;SDS011;55457;52.002;5.464;2022-07-15T04:22:44;2.58;;;1.70;;
55186;SDS011;55457;52.002;5.464;2022-07-15T04:25:14;2.15;;;1.25;;
55186;SDS011;55457;52.002;5.464;2022-07-15T04:27:40;3.08;;;1.67;;
55186;SDS011;55457;52.002;5.464;2022-07-15T04:30:06;2.70;;;1.90;;
55186;SDS011;55457;52.002;5.464;2022-07-15T04:32:32;3.17;;;2.00;;
55186;SDS011;55457;52.002;5.464;2022-07-15T04:34:57;1.85;;;1.35;;
55186;SDS011;55457;52.002;5.464;2022-07-15T04:37:23;2.60;;;1.27;;
55186;SDS011;55457;52.002;5.464;2022-07-15T04:39:48;2.30;;;1.65;;
55186;SDS011;55457;52.002;5.464;2022-07-15T04:42:14;3.08;;;1.80;;
55186;SDS011;55457;52.002;5.464;2022-07-15T04:44:39;2.58;;;2.05;;
55186;SDS011;55457;52.002;5.464;2022-07-15T04:47:04;2.30;;;1.40;;
55186;SDS011;55457;52.002;5.464;2022-07-15T04:49:30;3.25;;;1.30;;
55186;SDS011;55457;52.002;5.464;2022-07-15T04:52:14;3.53;;;1.90;;
55186;SDS011;55457;52.002;5.464;2022-07-15T04:54:40;2.95;;;1.60;;
55186;SDS011;55457;52.002;5.464;2022-07-15T04:57:05;3.22;;;1.58;;
55186;SDS011;55457;52.002;5.464;2022-07-15T04:59:31;2.40;;;1.60;;
55186;SDS011;55457;52.002;5.464;2022-07-15T05:01:57;3.15;;;1.40;;
55186;SDS011;55457;52.002;5.464;2022-07-15T05:04:22;2.60;;;1.33;;
55186;SDS011;55457;52.002;5.464;2022-07-15T05:06:47;4.03;;;1.48;;
55186;SDS011;55457;52.002;5.464;2022-07-15T05:09:13;1.98;;;1.50;;
55186;SDS011;55457;52.002;5.464;2022-07-15T05:11:38;2.20;;;1.27;;
55186;SDS011;55457;52.002;5.464;2022-07-15T05:14:03;2.85;;;1.40;;
55186;SDS011;55457;52.002;5.464;2022-07-15T05:16:29;6.32;;;1.92;;
55186;SDS011;55457;52.002;5.464;2022-07-15T05:18:55;4.32;;;1.70;;
55186;SDS011;55457;52.002;5.464;2022-07-15T05:21:20;2.10;;;1.17;;
55186;SDS011;55457;52.002;5.464;2022-07-15T05:23:45;2.13;;;1.60;;
55186;SDS011;55457;52.002;5.464;2022-07-15T05:26:11;3.67;;;2.00;;
55186;SDS011;55457;52.002;5.464;2022-07-15T05:28:36;2.85;;;1.92;;
55186;SDS011;55457;52.002;5.464;2022-07-15T05:31:04;5.10;;;1.60;;
55186;SDS011;55457;52.002;5.464;2022-07-15T05:33:30;5.88;;;1.77;;
55186;SDS011;55457;52.002;5.464;2022-07-15T05:35:55;3.05;;;1.50;;
55186;SDS011;55457;52.002;5.464;2022-07-15T05:38:20;2.10;;;1.30;;
55186;SDS011;55457;52.002;5.464;2022-07-15T05:40:46;1.83;;;1.23;;
55186;SDS011;55457;52.002;5.464;2022-07-15T05:43:11;2.53;;;1.50;;
55186;SDS011;55457;52.002;5.464;2022-07-15T05:45:36;3.15;;;1.77;;
55186;SDS011;55457;52.002;5.464;2022-07-15T05:48:02;2.88;;;1.60;;
55186;SDS011;55457;52.002;5.464;2022-07-15T05:50:27;5.63;;;1.83;;
55186;SDS011;55457;52.002;5.464;2022-07-15T05:52:53;3.53;;;1.52;;
55186;SDS011;55457;52.002;5.464;2022-07-15T05:55:18;2.67;;;1.50;;
55186;SDS011;55457;52.002;5.464;2022-07-15T05:57:43;3.05;;;1.40;;
55186;SDS011;55457;52.002;5.464;2022-07-15T06:00:09;2.25;;;1.88;;
55186;SDS011;55457;52.002;5.464;2022-07-15T06:02:34;1.58;;;1.27;;
55186;SDS011;55457;52.002;5.464;2022-07-15T06:05:00;3.30;;;1.55;;
55186;SDS011;55457;52.002;5.464;2022-07-15T06:07:25;2.80;;;1.48;;
55186;SDS011;55457;52.002;5.464;2022-07-15T06:09:51;3.03;;;1.83;;
55186;SDS011;55457;52.002;5.464;2022-07-15T06:12:16;3.83;;;2.05;;
55186;SDS011;55457;52.002;5.464;2022-07-15T06:14:42;4.07;;;1.42;;
55186;SDS011;55457;52.002;5.464;2022-07-15T06:17:08;1.77;;;1.23;;
55186;SDS011;55457;52.002;5.464;2022-07-15T06:19:33;2.63;;;1.60;;
55186;SDS011;55457;52.002;5.464;2022-07-15T06:21:59;1.70;;;1.30;;
55186;SDS011;55457;52.002;5.464;2022-07-15T06:24:24;3.90;;;1.17;;
55186;SDS011;55457;52.002;5.464;2022-07-15T06:26:50;2.28;;;1.58;;
55186;SDS011;55457;52.002;5.464;2022-07-15T06:29:16;2.47;;;1.48;;
55186;SDS011;55457;52.002;5.464;2022-07-15T06:31:42;3.20;;;1.70;;
55186;SDS011;55457;52.002;5.464;2022-07-15T06:34:07;4.82;;;1.50;;
55186;SDS011;55457;52.002;5.464;2022-07-15T06:36:32;3.25;;;1.85;;
55186;SDS011;55457;52.002;5.464;2022-07-15T06:38:58;7.60;;;1.80;;
55186;SDS011;55457;52.002;5.464;2022-07-15T06:41:23;4.90;;;1.55;;
55186;SDS011;55457;52.002;5.464;2022-07-15T06:43:49;4.60;;;1.90;;
55186;SDS011;55457;52.002;5.464;2022-07-15T06:46:14;3.22;;;1.58;;
55186;SDS011;55457;52.002;5.464;2022-07-15T06:48:39;5.45;;;1.83;;
55186;SDS011;55457;52.002;5.464;2022-07-15T06:51:07;4.60;;;1.50;;
55186;SDS011;55457;52.002;5.464;2022-07-15T06:53:32;8.18;;;2.10;;
55186;SDS011;55457;52.002;5.464;2022-07-15T06:55:58;9.57;;;1.90;;
55186;SDS011;55457;52.002;5.464;2022-07-15T06:58:23;6.18;;;2.10;;
55186;SDS011;55457;52.002;5.464;2022-07-15T07:00:48;3.38;;;1.65;;
55186;SDS011;55457;52.002;5.464;2022-07-15T07:03:14;4.93;;;1.50;;
55186;SDS011;55457;52.002;5.464;2022-07-15T07:05:39;3.28;;;1.65;;
55186;SDS011;55457;52.002;5.464;2022-07-15T07:08:05;6.88;;;1.48;;
55186;SDS011;55457;52.002;5.464;2022-07-15T07:10:30;8.05;;;2.00;;
55186;SDS011;55457;52.002;5.464;2022-07-15T07:12:56;5.10;;;1.75;;
55186;SDS011;55457;52.002;5.464;2022-07-15T07:15:22;8.38;;;2.00;;
55186;SDS011;55457;52.002;5.464;2022-07-15T07:17:49;6.28;;;1.92;;
55186;SDS011;55457;52.002;5.464;2022-07-15T07:20:16;6.78;;;2.03;;
55186;SDS011;55457;52.002;5.464;2022-07-15T07:22:41;6.38;;;1.85;;
55186;SDS011;55457;52.002;5.464;2022-07-15T07:25:07;5.60;;;1.83;;
55186;SDS011;55457;52.002;5.464;2022-07-15T07:27:32;7.57;;;1.88;;
55186;SDS011;55457;52.002;5.464;2022-07-15T07:29:58;6.05;;;1.75;;
55186;SDS011;55457;52.002;5.464;2022-07-15T07:32:23;7.55;;;1.77;;
55186;SDS011;55457;52.002;5.464;2022-07-15T07:34:49;6.40;;;1.67;;
55186;SDS011;55457;52.002;5.464;2022-07-15T07:37:15;5.38;;;1.50;;
55186;SDS011;55457;52.002;5.464;2022-07-15T07:39:40;3.65;;;1.40;;
55186;SDS011;55457;52.002;5.464;2022-07-15T07:42:06;6.88;;;1.63;;
55186;SDS011;55457;52.002;5.464;2022-07-15T07:44:31;7.10;;;1.30;;
55186;SDS011;55457;52.002;5.464;2022-07-15T07:46:56;4.80;;;1.50;;
55186;SDS011;55457;52.002;5.464;2022-07-15T07:49:22;3.75;;;1.50;;
55186;SDS011;55457;52.002;5.464;2022-07-15T07:51:47;8.50;;;1.63;;
55186;SDS011;55457;52.002;5.464;2022-07-15T07:54:12;4.88;;;1.83;;
55186;SDS011;55457;52.002;5.464;2022-07-15T07:56:38;4.53;;;1.08;;
55186;SDS011;55457;52.002;5.464;2022-07-15T07:59:03;6.13;;;1.45;;
55186;SDS011;55457;52.002;5.464;2022-07-15T08:01:29;8.23;;;1.30;;
55186;SDS011;55457;52.002;5.464;2022-07-15T08:03:54;4.93;;;1.40;;
55186;SDS011;55457;52.002;5.464;2022-07-15T08:06:19;4.40;;;1.40;;
55186;SDS011;55457;52.002;5.464;2022-07-15T08:08:47;3.28;;;1.33;;
55186;SDS011;55457;52.002;5.464;2022-07-15T08:11:13;4.43;;;1.38;;
55186;SDS011;55457;52.002;5.464;2022-07-15T08:13:38;7.00;;;2.20;;
55186;SDS011;55457;52.002;5.464;2022-07-15T08:16:04;3.72;;;1.35;;
55186;SDS011;55457;52.002;5.464;2022-07-15T08:18:31;5.30;;;1.38;;
55186;SDS011;55457;52.002;5.464;2022-07-15T08:20:56;3.60;;;1.30;;
55186;SDS011;55457;52.002;5.464;2022-07-15T08:23:22;4.43;;;1.30;;
55186;SDS011;55457;52.002;5.464;2022-07-15T08:25:48;5.55;;;1.10;;
55186;SDS011;55457;52.002;5.464;2022-07-15T08:28:14;6.53;;;1.38;;
55186;SDS011;55457;52.002;5.464;2022-07-15T08:30:40;6.22;;;2.28;;
55186;SDS011;55457;52.002;5.464;2022-07-15T08:33:05;3.85;;;1.27;;
55186;SDS011;55457;52.002;5.464;2022-07-15T08:35:31;4.85;;;1.10;;
55186;SDS011;55457;52.002;5.464;2022-07-15T08:37:57;3.47;;;0.90;;
55186;SDS011;55457;52.002;5.464;2022-07-15T08:40:22;5.93;;;1.38;;
55186;SDS011;55457;52.002;5.464;2022-07-15T08:42:49;6.00;;;1.25;;
55186;SDS011;55457;52.002;5.464;2022-07-15T08:45:15;4.15;;;1.30;;
55186;SDS011;55457;52.002;5.464;2022-07-15T08:47:42;1.83;;;0.70;;
55186;SDS011;55457;52.002;5.464;2022-07-15T08:50:10;4.57;;;1.27;;
55186;SDS011;55457;52.002;5.464;2022-07-15T08:52:37;4.28;;;1.08;;
55186;SDS011;55457;52.002;5.464;2022-07-15T08:55:03;5.70;;;1.63;;
55186;SDS011;55457;52.002;5.464;2022-07-15T08:57:29;3.03;;;0.85;;
55186;SDS011;55457;52.002;5.464;2022-07-15T08:59:55;2.80;;;0.82;;
55186;SDS011;55457;52.002;5.464;2022-07-15T09:02:20;4.30;;;1.00;;
55186;SDS011;55457;52.002;5.464;2022-07-15T09:10:47;3.90;;;0.80;;
55186;SDS011;55457;52.002;5.464;2022-07-15T09:15:57;5.75;;;1.00;;
55186;SDS011;55457;52.002;5.464;2022-07-15T09:18:25;5.57;;;1.10;;
55186;SDS011;55457;52.002;5.464;2022-07-15T09:20:52;3.78;;;1.40;;
55186;SDS011;55457;52.002;5.464;2022-07-15T09:23:20;3.03;;;0.77;;
55186;SDS011;55457;52.002;5.464;2022-07-15T09:25:54;5.22;;;1.05;;
55186;SDS011;55457;52.002;5.464;2022-07-15T09:28:34;2.33;;;0.60;;
55186;SDS011;55457;52.002;5.464;2022-07-15T09:31:05;2.58;;;0.60;;
55186;SDS011;55457;52.002;5.464;2022-07-15T09:33:50;2.28;;;0.82;;
55186;SDS011;55457;52.002;5.464;2022-07-15T09:36:24;2.22;;;0.52;;
55186;SDS011;55457;52.002;5.464;2022-07-15T09:38:52;3.25;;;0.82;;
55186;SDS011;55457;52.002;5.464;2022-07-15T09:44:01;1.63;;;0.38;;
55186;SDS011;55457;52.002;5.464;2022-07-15T09:46:41;3.20;;;0.80;;
55186;SDS011;55457;52.002;5.464;2022-07-15T09:49:16;1.38;;;0.50;;
55186;SDS011;55457;52.002;5.464;2022-07-15T09:51:57;3.35;;;0.65;;
55186;SDS011;55457;52.002;5.464;2022-07-15T09:54:26;1.63;;;0.70;;
55186;SDS011;55457;52.002;5.464;2022-07-15T09:56:56;1.35;;;0.35;;
55186;SDS011;55457;52.002;5.464;2022-07-15T09:59:23;1.48;;;0.52;;
55186;SDS011;55457;52.002;5.464;2022-07-15T10:01:50;1.70;;;0.40;;
55186;SDS011;55457;52.002;5.464;2022-07-15T10:04:17;3.88;;;0.77;;
55186;SDS011;55457;52.002;5.464;2022-07-15T10:06:44;2.08;;;0.77;;
55186;SDS011;55457;52.002;5.464;2022-07-15T10:09:12;2.00;;;0.80;;
55186;SDS011;55457;52.002;5.464;2022-07-15T10:11:38;1.80;;;0.60;;
55186;SDS011;55457;52.002;5.464;2022-07-15T10:14:20;1.75;;;0.50;;
55186;SDS011;55457;52.002;5.464;2022-07-15T10:25:02;1.63;;;0.50;;
55186;SDS011;55457;52.002;5.464;2022-07-15T10:27:48;2.00;;;0.50;;
55186;SDS011;55457;52.002;5.464;2022-07-15T10:30:23;0.50;;;0.40;;
55186;SDS011;55457;52.002;5.464;2022-07-15T10:48:47;1.23;;;0.40;;
55186;SDS011;55457;52.002;5.464;2022-07-15T10:56:43;1.13;;;0.47;;
55186;SDS011;55457;52.002;5.464;2022-07-15T11:02:26;2.22;;;0.50;;
55186;SDS011;55457;52.002;5.464;2022-07-15T11:04:33;3.22;;;0.60;;
55186;SDS011;55457;52.002;5.464;2022-07-15T11:12:16;1.92;;;0.57;;
55186;SDS011;55457;52.002;5.464;2022-07-15T11:15:31;0.80;;;0.30;;
55186;SDS011;55457;52.002;5.464;2022-07-15T11:17:45;2.05;;;0.50;;
55186;SDS011;55457;52.002;5.464;2022-07-15T11:22:41;1.45;;;0.47;;
55186;SDS011;55457;52.002;5.464;2022-07-15T11:25:50;2.60;;;0.90;;
55186;SDS011;55457;52.002;5.464;2022-07-15T11:28:06;5.82;;;0.75;;
55186;SDS011;55457;52.002;5.464;2022-07-15T11:30:38;1.15;;;0.50;;
55186;SDS011;55457;52.002;5.464;2022-07-15T11:33:20;1.10;;;0.50;;
55186;SDS011;55457;52.002;5.464;2022-07-15T11:35:51;2.40;;;0.67;;
55186;SDS011;55457;52.002;5.464;2022-07-15T11:38:22;1.40;;;0.50;;
55186;SDS011;55457;52.002;5.464;2022-07-15T11:40:51;2.55;;;0.70;;
55186;SDS011;55457;52.002;5.464;2022-07-15T11:43:37;1.88;;;0.70;;
55186;SDS011;55457;52.002;5.464;2022-07-15T11:46:21;2.85;;;0.50;;
55186;SDS011;55457;52.002;5.464;2022-07-15T11:48:48;1.13;;;0.45;;
55186;SDS011;55457;52.002;5.464;2022-07-15T11:51:15;2.08;;;0.68;;
55186;SDS011;55457;52.002;5.464;2022-07-15T11:53:42;0.88;;;0.65;;
55186;SDS011;55457;52.002;5.464;2022-07-15T11:56:09;0.88;;;0.52;;
55186;SDS011;55457;52.002;5.464;2022-07-15T12:01:03;4.03;;;1.33;;
55186;SDS011;55457;52.002;5.464;2022-07-15T12:03:34;1.55;;;0.68;;
55186;SDS011;55457;52.002;5.464;2022-07-15T12:06:03;2.80;;;0.68;;
55186;SDS011;55457;52.002;5.464;2022-07-15T12:08:37;1.95;;;0.60;;
55186;SDS011;55457;52.002;5.464;2022-07-15T12:11:08;1.33;;;0.50;;
55186;SDS011;55457;52.002;5.464;2022-07-15T12:13:49;0.98;;;0.60;;
55186;SDS011;55457;52.002;5.464;2022-07-15T12:16:36;1.55;;;0.82;;
55186;SDS011;55457;52.002;5.464;2022-07-15T12:19:16;1.85;;;0.80;;
55186;SDS011;55457;52.002;5.464;2022-07-15T12:21:44;1.85;;;0.30;;
55186;SDS011;55457;52.002;5.464;2022-07-15T12:24:16;1.05;;;0.40;;
55186;SDS011;55457;52.002;5.464;2022-07-15T12:29:18;1.05;;;0.60;;
55186;SDS011;55457;52.002;5.464;2022-07-15T12:31:57;1.25;;;0.80;;
55186;SDS011;55457;52.002;5.464;2022-07-15T12:37:11;2.22;;;0.60;;
55186;SDS011;55457;52.002;5.464;2022-07-15T12:39:57;1.90;;;0.70;;
55186;SDS011;55457;52.002;5.464;2022-07-15T12:42:46;1.95;;;0.70;;
55186;SDS011;55457;52.002;5.464;2022-07-15T12:48:01;2.30;;;0.77;;
55186;SDS011;55457;52.002;5.464;2022-07-15T12:51:10;0.93;;;0.60;;
55186;SDS011;55457;52.002;5.464;2022-07-15T12:53:19;1.25;;;0.68;;
55186;SDS011;55457;52.002;5.464;2022-07-15T12:55:47;1.30;;;0.60;;
55186;SDS011;55457;52.002;5.464;2022-07-15T12:58:15;1.85;;;0.80;;
55186;SDS011;55457;52.002;5.464;2022-07-15T13:00:42;1.25;;;0.60;;
55186;SDS011;55457;52.002;5.464;2022-07-15T13:05:36;0.88;;;0.70;;
55186;SDS011;55457;52.002;5.464;2022-07-15T13:08:09;1.85;;;1.17;;
55186;SDS011;55457;52.002;5.464;2022-07-15T13:10:36;0.97;;;0.60;;
55186;SDS011;55457;52.002;5.464;2022-07-15T13:13:03;1.25;;;0.88;;
55186;SDS011;55457;52.002;5.464;2022-07-15T13:15:29;1.27;;;0.52;;
55186;SDS011;55457;52.002;5.464;2022-07-15T13:17:55;1.33;;;0.90;;
55186;SDS011;55457;52.002;5.464;2022-07-15T13:20:20;4.25;;;1.30;;
55186;SDS011;55457;52.002;5.464;2022-07-15T13:22:46;1.92;;;0.80;;
55186;SDS011;55457;52.002;5.464;2022-07-15T13:25:11;2.15;;;0.95;;
55186;SDS011;55457;52.002;5.464;2022-07-15T13:27:38;2.38;;;0.90;;
55186;SDS011;55457;52.002;5.464;2022-07-15T13:30:04;2.00;;;1.00;;
55186;SDS011;55457;52.002;5.464;2022-07-15T13:32:30;1.95;;;1.00;;
55186;SDS011;55457;52.002;5.464;2022-07-15T13:34:55;1.10;;;1.00;;
55186;SDS011;55457;52.002;5.464;2022-07-15T13:37:20;1.55;;;0.80;;
55186;SDS011;55457;52.002;5.464;2022-07-15T13:39:46;1.17;;;0.75;;
55186;SDS011;55457;52.002;5.464;2022-07-15T13:42:11;2.70;;;1.05;;
55186;SDS011;55457;52.002;5.464;2022-07-15T13:44:36;2.25;;;1.33;;
55186;SDS011;55457;52.002;5.464;2022-07-15T13:47:02;1.98;;;1.05;;
55186;SDS011;55457;52.002;5.464;2022-07-15T13:49:28;3.63;;;1.05;;
55186;SDS011;55457;52.002;5.464;2022-07-15T13:52:13;1.95;;;0.80;;
55186;SDS011;55457;52.002;5.464;2022-07-15T13:54:38;3.03;;;0.90;;
55186;SDS011;55457;52.002;5.464;2022-07-15T13:57:03;2.67;;;1.30;;
55186;SDS011;55457;52.002;5.464;2022-07-15T13:59:29;1.85;;;1.08;;
55186;SDS011;55457;52.002;5.464;2022-07-15T14:01:54;5.35;;;1.45;;
55186;SDS011;55457;52.002;5.464;2022-07-15T14:04:19;2.75;;;1.13;;
55186;SDS011;55457;52.002;5.464;2022-07-15T14:06:45;2.05;;;1.08;;
55186;SDS011;55457;52.002;5.464;2022-07-15T14:09:11;2.53;;;1.17;;
55186;SDS011;55457;52.002;5.464;2022-07-15T14:11:36;2.53;;;1.05;;
55186;SDS011;55457;52.002;5.464;2022-07-15T14:14:01;2.13;;;1.48;;
55186;SDS011;55457;52.002;5.464;2022-07-15T14:16:27;1.38;;;0.95;;
55186;SDS011;55457;52.002;5.464;2022-07-15T14:18:52;3.20;;;1.35;;
55186;SDS011;55457;52.002;5.464;2022-07-15T14:21:18;3.17;;;1.25;;
55186;SDS011;55457;52.002;5.464;2022-07-15T14:23:44;4.43;;;1.25;;
55186;SDS011;55457;52.002;5.464;2022-07-15T14:26:10;1.40;;;0.85;;
55186;SDS011;55457;52.002;5.464;2022-07-15T14:28:36;1.50;;;0.93;;
55186;SDS011;55457;52.002;5.464;2022-07-15T14:31:04;2.40;;;1.15;;
55186;SDS011;55457;52.002;5.464;2022-07-15T14:33:30;1.75;;;1.20;;
55186;SDS011;55457;52.002;5.464;2022-07-15T14:35:55;2.03;;;1.10;;
55186;SDS011;55457;52.002;5.464;2022-07-15T14:38:21;1.10;;;0.90;;
55186;SDS011;55457;52.002;5.464;2022-07-15T14:40:46;1.60;;;1.23;;
55186;SDS011;55457;52.002;5.464;2022-07-15T14:43:11;1.35;;;1.02;;
55186;SDS011;55457;52.002;5.464;2022-07-15T14:45:37;1.60;;;1.05;;
55186;SDS011;55457;52.002;5.464;2022-07-15T14:48:03;3.72;;;1.23;;
55186;SDS011;55457;52.002;5.464;2022-07-15T14:50:29;1.45;;;1.08;;
55186;SDS011;55457;52.002;5.464;2022-07-15T14:52:54;1.60;;;1.02;;
55186;SDS011;55457;52.002;5.464;2022-07-15T14:55:20;2.05;;;1.20;;
55186;SDS011;55457;52.002;5.464;2022-07-15T14:57:45;2.65;;;1.23;;
55186;SDS011;55457;52.002;5.464;2022-07-15T15:00:11;3.28;;;1.40;;
55186;SDS011;55457;52.002;5.464;2022-07-15T15:02:36;1.40;;;1.02;;
55186;SDS011;55457;52.002;5.464;2022-07-15T15:05:02;1.38;;;1.13;;
55186;SDS011;55457;52.002;5.464;2022-07-15T15:07:28;1.88;;;1.35;;
55186;SDS011;55457;52.002;5.464;2022-07-15T15:09:53;1.90;;;1.52;;
55186;SDS011;55457;52.002;5.464;2022-07-15T15:12:19;1.90;;;1.45;;
55186;SDS011;55457;52.002;5.464;2022-07-15T15:14:44;1.48;;;1.02;;
55186;SDS011;55457;52.002;5.464;2022-07-15T15:17:09;2.35;;;1.27;;
55186;SDS011;55457;52.002;5.464;2022-07-15T15:19:35;1.77;;;0.93;;
55186;SDS011;55457;52.002;5.464;2022-07-15T15:22:01;18.63;;;2.28;;
55186;SDS011;55457;52.002;5.464;2022-07-15T15:24:27;4.45;;;1.60;;
55186;SDS011;55457;52.002;5.464;2022-07-15T15:26:52;1.73;;;1.15;;
55186;SDS011;55457;52.002;5.464;2022-07-15T15:29:18;1.58;;;1.10;;
55186;SDS011;55457;52.002;5.464;2022-07-15T15:31:44;2.22;;;1.30;;
55186;SDS011;55457;52.002;5.464;2022-07-15T15:34:10;3.80;;;2.65;;
55186;SDS011;55457;52.002;5.464;2022-07-15T15:36:35;3.40;;;2.22;;
55186;SDS011;55457;52.002;5.464;2022-07-15T15:39:01;2.80;;;1.13;;
55186;SDS011;55457;52.002;5.464;2022-07-15T15:41:27;5.13;;;1.60;;
55186;SDS011;55457;52.002;5.464;2022-07-15T15:43:53;2.78;;;1.50;;
55186;SDS011;55457;52.002;5.464;2022-07-15T15:46:19;1.52;;;1.15;;
55186;SDS011;55457;52.002;5.464;2022-07-15T15:48:44;1.48;;;1.20;;
55186;SDS011;55457;52.002;5.464;2022-07-15T15:51:09;1.58;;;1.13;;
55186;SDS011;55457;52.002;5.464;2022-07-15T15:53:35;2.53;;;1.20;;